Terminal Aerodrome Forecast
Issued by NWS Charleston, WV

Current Version | Previous Version | Text Only | Print | Product List | Glossary Off
Versions: 1 2 3 4 5 6 7 8 9 10 11 12 13 14 15 16 17 18 19 20 21 22 23

781
FTUS41 KRLX 232335
TAFCRW
TAF
KCRW 232335Z 2400/2424 02004KT P6SM FEW035
     FM240600 00000KT 6SM BR FEW250
     FM240800 00000KT 2SM BR SCT001
     FM241000 00000KT 1/4SM FG OVC001
     FM241200 00000KT 2SM BR BKN002
     FM241300 00000KT 6SM BR FEW002
     FM241400 VRB03KT P6SM FEW050=

USA.gov is the U.S. government's official web portal to all federal, state and local government web resources and services.